Squad war stats
Faction Empire
Rank 92
TrueSkill™ 29,108
Reputation 18,409
Wars 178
Wins 137
Draws 34
Losses 7
Uplinks captured 7,914
Uplinks saved 3,165
Last updated 1 minute ago
Mu 29.117
Sigma 0.003
Last War 2d
Current War TaiwanSeraphim
Battle history
Date Opp. skill Opponent Result Score Opp. score Skill result Skill before Mu before Sigma before
2018-11-18 99% Han's-watchman DRAW 45 45 0 29108 29.117 0.003
2018-11-16 97% Reb.Allianz WIN 45 16 0 29108 29.117 0.003
2018-11-13 90% GreeceWarriors WIN 45 1 0 29108 29.117 0.003
2018-11-10 97% Galaxy_of_Heroes WIN 45 39 0 29108 29.117 0.003
2018-11-08 97% Wolverine13 WIN 45 12 0 29108 29.117 0.003
2018-11-06 97% RUSSIA.1 WIN 43 22 0 29108 29.117 0.003
2018-11-02 98% BarefootPhoenix DRAW 45 45 0 29108 29.117 0.003
2018-10-31 102% n7specters DRAW 45 45 0 29108 29.117 0.003
2018-10-28 87% Snow-walkers WIN 45 43 0 29108 29.117 0.003
2018-10-26 97% Light-Warriors WIN 45 42 0 29108 29.117 0.003
2018-10-24 97% RebelForceAwakes WIN 45 19 0 29108 29.117 0.003
2018-10-21 105% PartylikeHAVOC LOSS 4 45 0 29108 29.117 0.003
2018-10-19 65% Canadin_rebels WIN 45 9 0 29108 29.117 0.003
2018-10-17 97% Light-Warriors WIN 45 39 0 29108 29.117 0.003
2018-10-12 103% Jedi-Jawas LOSS 41 45 0 29108 29.117 0.003
2018-10-09 96% RussianRedArmyAc DRAW 45 45 0 29108 29.117 0.003
2018-10-06 95% Phoenix_Rising WIN 45 9 0 29108 29.117 0.003
2018-10-03 98% Skyfire WIN 45 36 0 29108 29.117 0.003
2018-09-29 98% RebelsLounge WIN 45 12 0 29108 29.117 0.003
2018-09-26 96% RIPSolo WIN 45 27 0 29108 29.117 0.003
2018-09-22 90% German's-B-Team WIN 45 8 0 29108 29.117 0.003
2018-09-19 97% Rebelguardians WIN 45 26 0 29108 29.117 0.003
2018-09-15 103% RUS-ВИТЯЗИacadem WIN 45 37 +721 28387 28.475 0.025
2018-09-13 74% DaywalkerRebels WIN 45 10 0 28387 28.475 0.025
2018-09-08 98% RebelsReborn WIN 45 34 +5 28382 28.471 0.025
2018-09-05 96% OuterRimRioters LOSS 38 45 -1,218 29600 30.380 0.223
2018-09-01 88% S.H.I.E.L.D.rage WIN 45 1 0 29600 30.380 0.223
2018-08-29 98% Dark-Poets DRAW 45 45 0 29600 30.380 0.223
2018-08-25 100% Knight'sTemplar DRAW 45 45 0 29600 30.380 0.223
2018-08-22 96% Solo'sRenagades WIN 45 11 0 29600 30.380 0.223
2018-08-18 104% _NAMELESS_ LOSS 42 45 +1 29599 30.380 0.223
2018-08-15 96% Ewoks-revenge WIN 45 43 0 29599 30.380 0.223
2018-08-10 96% FalloftheEmpire DRAW 45 45 0 29599 30.380 0.223
2018-08-08 95% Silo18 WIN 45 3 0 29599 30.380 0.223
2018-08-04 96% RUSSIAN-ROCKETS WIN 44 37 +2 29597 30.379 0.224
2018-08-01 99% KORA DRAW 45 45 0 29597 30.379 0.224
2018-07-28 95% Windows_Rejects2 DRAW 45 45 0 29597 30.379 0.224
2018-07-25 96% Active_Group WIN 45 10 0 29597 30.379 0.224
2018-07-21 96% RUSSIAN-ROCKETS WIN 44 36 +3 29594 30.379 0.224
2018-07-18 95% USAKnightsReborn WIN 45 42 0 29594 30.379 0.224
2018-07-13 70% JJs-Revenge WIN 45 19 +1 29593 30.379 0.224
2018-07-11 96% TaiwanSeraphim WIN 45 39 0 29593 30.379 0.224
2018-07-07 98% Dark-Poets DRAW 45 45 0 29593 30.379 0.224
2018-07-05 92% DejavuMayans WIN 45 36 0 29593 30.379 0.224
2018-07-02 96% Britain2.0 DRAW 45 45 0 29593 30.379 0.224
2018-06-29 96% Rapid-Fire WIN 45 9 0 29593 30.379 0.224
2018-06-27 96% Wookie-Clan WIN 45 15 0 29593 30.379 0.224
2018-06-21 93% ForceLust WIN 45 12 0 29593 30.379 0.224
2018-06-13 94% MexRebelds201 WIN 45 20 0 30083 30.379 0.084
2018-06-11 95% Quebec_rebelle_a WIN 45 31 0 30083 30.379 0.084
2018-06-08 89% NightRogueEX WIN 45 3 0 30083 30.379 0.084
2018-06-06 93% ITALIAcommander WIN 44 23 0 30083 30.379 0.084
2018-06-02 86% RatPatrol WIN 45 9 0 30083 30.379 0.084
2018-05-29 94% BeRserKerS WIN 45 18 0 30083 30.379 0.084
2018-05-24 92% MazCrew:Heroes WIN 45 25 0 30083 30.379 0.084
2018-05-21 96% JEDI.NIGHTS DRAW 45 45 0 30083 30.379 0.084
2018-05-19 90% donators8 WIN 45 16 0 30083 30.379 0.084
2018-05-16 95% Active_Group WIN 45 19 0 30083 30.379 0.084
2018-05-14 94% onewiththeforce WIN 45 43 0 30083 30.379 0.084
2018-05-12 96% Donate-or-leave2 WIN 45 30 0 30083 30.379 0.084
2018-05-09 94% GreeceWarriors WIN 45 4 0 30083 30.379 0.084
2018-05-06 68% havoc_blacksheep WIN 45 37 0 30083 30.378 0.084
2018-05-04 95% DrtyR10Rebs WIN 45 7 0 30083 30.378 0.084
2018-05-02 97% Ackbar's_Fleet WIN 45 32 0 30083 30.378 0.084
2018-04-30 95% RogueElite2 WIN 45 16 0 30083 30.378 0.084
2018-04-27 0% GermanRebs WIN 45 42 0 30083 30.378 0.084
2018-04-25 70% Warriors.Clan WIN 45 6 0 30083 30.378 0.084
2018-04-23 91% SouthAfrica WIN 45 6 0 30083 30.378 0.084
2018-04-21 100% Marauders-Echo30 LOSS 37 45 +5 30078 30.436 0.102
2018-04-18 93% Der_Allergrößte WIN 45 5 0 30078 30.436 0.102
2018-04-16 95% GoW_GodzOfWar WIN 45 28 0 30078 30.436 0.102
2018-04-14 90% LongLivTheRebels WIN 45 43 0 30078 30.436 0.102
2018-04-12 96% PiratesLife4me WIN 45 13 0 30078 30.436 0.102
2018-04-09 92% TatooWin44 WIN 45 4 0 30078 30.436 0.102
2018-04-07 95% Smash_and_Burn WIN 45 25 0 30078 30.436 0.102
2018-04-04 91% ImpDestroyer2.0 WIN 45 29 0 30078 30.436 0.102
2018-04-02 91% SingaporeJedi DRAW 45 45 0 30078 30.436 0.102
2018-03-31 95% FILIPINO™FARMERS WIN 45 10 0 30078 30.436 0.102
2018-03-28 95% YAVIN4 WIN 45 9 0 30078 30.436 0.102
2018-03-26 94% ConsejoJediChile WIN 45 44 0 30078 30.436 0.102
2018-03-24 104% Marauders-Echo30 DRAW 43 43 +774 29304 29.857 0.158
2018-03-20 98% YAVIN4 WIN 45 3 0 29304 29.857 0.158
2018-03-15 99% GoW_GodzOfWar WIN 45 25 0 29304 29.857 0.158
2018-03-13 97% German-Jedis WIN 45 8 0 29304 29.857 0.158
2018-03-10 92% ZenJedi WIN 45 16 +1 29303 29.857 0.158
2018-03-08 99% hrvatska1950 DRAW 45 45 0 29303 29.857 0.158
2018-03-05 98% Lions-Battalion WIN 44 40 +6 29297 29.855 0.160
2018-03-03 102% Elite_Champs LOSS 34 45 +70 29227 30.662 0.410
2018-02-28 96% SunDevilSquadron WIN 45 1 +1 29226 30.662 0.410
2018-02-26 100% Rey's_Raiders WIN 45 28 +2 29224 30.661 0.411
2018-02-20 98% RebelsAll WIN 45 37 0 29224 30.661 0.411
2018-02-18 98% JEDI-alliance WIN 45 42 +272 28952 30.561 0.460
2018-02-15 80% Warriors.Clan WIN 45 18 +11 28941 30.557 0.461
2018-02-10 100% УкраинаКиев WIN 45 28 +3 28938 30.556 0.462
2018-02-07 98% espana015 WIN 45 10 +1 28937 30.556 0.462
2018-02-04 84% icecandy WIN 45 21 0 28937 30.556 0.463
2018-02-01 102% DejavuPortal DRAW 45 45 0 28937 30.556 0.463
2018-01-30 100% ActiveDonatorYMW WIN 45 32 +6 28931 30.555 0.464
2018-01-27 101% ElvenRebels DRAW 45 45 0 28931 30.555 0.464
2018-01-24 97% Do_or_do_not WIN 45 12 0 28931 30.555 0.464
2018-01-19 102% DejavuPortal WIN 45 37 +119 28812 30.530 0.491
2018-01-17 100% AussieRebels WIN 45 21 +14 28798 30.528 0.494
2018-01-13 96% LongLivTheRebels WIN 45 7 +165 28633 30.472 0.526
2018-01-11 88% Elite_Champs3 WIN 43 38 +127 28506 30.411 0.544
2017-12-29 101% Russian_League DRAW 45 45 0 29346 30.411 0.304
2017-12-27 98% Italia-HanSolo3 DRAW 45 45 0 29346 30.411 0.304
2017-12-25 94% Japan☆Force™ WIN 45 8 0 29346 30.411 0.304
2017-12-22 102% Death_shadow3 WIN 45 31 +298 29048 30.330 0.366
2017-12-20 99% Rebel's4Life WIN 45 22 0 29048 30.330 0.366
2017-12-18 97% French'Allied WIN 45 28 0 29048 30.330 0.366
2017-12-16 102% theCave DRAW 45 45 0 29048 30.330 0.366
2017-12-13 102% 420;) WIN 43 35 +215 28833 30.277 0.413
2017-12-09 99% BaronJedi WIN 45 12 +1 28832 30.277 0.413
2017-12-06 100% ChicagoDarkSide WIN 45 36 +8 28824 30.276 0.415
2017-11-30 103% Czech.Prometheus DRAW 45 45 0 28824 30.276 0.415
2017-11-28 101% NEW_EMPIRE WIN 45 18 +24 28800 30.272 0.421
2017-11-23 100% Light-This-Force WIN 45 34 +4 28796 30.271 0.421
2017-11-20 102% force:of:nature DRAW 45 45 0 28796 30.271 0.421
2017-11-18 100% Jedi_Joe'sOrder DRAW 45 45 0 28796 30.271 0.421
2017-11-14 100% Die.Macht WIN 45 8 +1 28795 30.271 0.422
2017-11-12 101% Spanish-Alliance WIN 45 26 +23 28772 30.267 0.427
2017-11-09 101% BattleRaxFury DRAW 45 45 0 28772 30.267 0.427
2017-11-05 90% Spain_vuelo WIN 45 10 0 28772 30.267 0.427
2017-11-03 101% Rogue_Elite WIN 45 39 +57 28715 30.256 0.440
2017-10-31 97% THE.GIRONDIN'S WIN 45 29 +10 28705 30.254 0.443
2017-10-27 100% Novacore WIN 45 8 +10 28695 30.253 0.445
2017-10-24 102% OBW.ELITE WIN 45 44 +115 28580 30.229 0.471
2017-10-21 104% Clone_WAR DRAW 45 45 0 28580 30.229 0.471
2017-10-19 103% FallOfTheEmpire DRAW 45 45 0 28580 30.229 0.471
2017-10-16 101% German•Imperium WIN 45 39 +63 28517 30.216 0.486
2017-10-13 103% TaiwanSeraphim WIN 45 39 +345 28172 30.129 0.559
2017-10-10 105% Russian_League DRAW 45 45 0 28172 30.129 0.559
2017-10-07 106% Jedi'battle WIN 45 10 +806 27366 29.893 0.722
2017-10-05 104% Australian-elite DRAW 45 45 0 27366 29.893 0.722
2017-10-02 97% JAPAN_Rogue_ZeRo LOSS 40 44 -1,889 29255 36.563 2.088
2017-09-11 100% FILIPINO™FARMERS DRAW 45 45 0 29255 36.563 2.088
2017-09-08 96% TaiwanSeraphim WIN 45 36 +6 29249 36.562 2.089
2017-09-05 100% Bubbakills WIN 42 38 +26 29223 36.558 2.096
2017-09-02 95% Dansk_daglig WIN 45 0 +4 29219 36.557 2.097
2017-08-30 99% Ewoks-revenge DRAW 45 45 0 29219 36.557 2.097
2017-08-27 95% LunaRebels WIN 45 25 +9 29210 36.556 2.099
2017-08-24 101% Havoc_Recon DRAW 45 45 0 29210 36.556 2.099
2017-08-22 98% Rebel_665 WIN 45 21 +10 29200 36.555 2.101
2017-08-19 98% RogueSqad2 WIN 45 19 +9 29191 36.554 2.104
2017-08-17 98% Reb.Allianz WIN 45 16 +6 29185 36.553 2.105
2017-08-15 99% Merc-Inc DRAW 45 45 0 29185 36.553 2.105
2017-08-12 73% JEDI-WATCHMEN WIN 43 40 +896 28289 36.153 2.247
2017-08-10 101% OMNII-POTENCE WIN 45 0 +34 28255 36.148 2.255
2017-08-08 80% Japan☆Force™ WIN 45 24 +340 27915 36.056 2.326
2017-08-06 98% New--Jedi--Order WIN 45 14 +32 27883 36.051 2.334
2017-08-02 103% УкраинаКиев WIN 45 18 +98 27785 36.035 2.357
2017-07-31 103% Force-2-Naverone WIN 45 15 +64 27721 36.025 2.373
2017-07-29 103% Jedi501st WIN 45 36 +64 27657 36.015 2.388
2017-07-27 105% Deathclerks WIN 45 29 +155 27502 35.988 2.425
2017-07-25 103% KandorRising WIN 45 15 +102 27400 35.971 2.449
2017-07-23 104% RebelAlliance-08 WIN 45 13 +97 27303 35.955 2.472
2017-07-21 105% NewOrder-Droids WIN 45 30 +138 27165 35.931 2.505
2017-07-19 103% WookieLeaks WIN 45 21 +90 27075 35.916 2.526
2017-07-16 104% ReeversRebels WIN 45 36 +135 26940 35.893 2.558
2017-07-14 106% GreatJediHeros WIN 45 22 +175 26765 35.862 2.599
2017-07-12 106% .RebelAlliance WIN 45 12 +201 26564 35.826 2.646
2017-07-10 105% RoguesofVader WIN 45 25 +164 26400 35.798 2.685
2017-07-08 104% BattleFrontRebel WIN 45 8 +182 26218 35.766 2.728
2017-07-06 104% obw DRAW 45 45 0 26218 35.766 2.728
2017-07-04 105% Australian-elite WIN 45 22 +254 26034 35.719 2.767
2017-07-02 109% Confederacy-0ne WIN 45 22 +335 25804 35.656 2.815
2017-06-29 97% Yoda'sMafia DRAW 45 45 0 25909 35.656 2.785
2017-06-27 105% RICO'sREBLES WIN 45 5 +173 25806 35.625 2.806
2017-06-25 109% Marinedog WIN 45 18 +328 25548 35.564 2.862
2017-06-23 104% FalconSquad WIN 45 22 +186 25293 35.507 2.918
2017-06-21 114% DetroitJedi WIN 45 10 +777 24586 35.342 3.073
2017-06-19 103% Kenobi WIN 45 4 +139 25409 35.540 2.895
2017-06-17 118% ChristiansUnited WIN 45 40 +959 23767 35.133 3.248
2017-06-15 117% blazers WIN 45 20 +696 23141 34.991 3.386
2017-06-13 132% TheJediKnightz WIN 45 28 +2,151 21060 34.458 3.828
2017-06-11 151% Forcefullness WIN 45 8 +3,258 17872 33.604 4.495
2017-06-09 2691000% brasileiros_BR WIN 45 26 +17,576 0 25.000 8.333
2017-06-06 11% Stormtroopers98 WIN 45 14 +401 17576 33.497 4.549
*Note: Wars from before June 22nd 2016 are not included.